sensor_id;sensor_type;location;lat;lon;timestamp;pressure;altitude;pressure_sealevel;temperature;humidity
48606;BME280;8482;54.396;18.590;2023-05-20T07:14:51;102831.78;;;13.63;71.56
48606;BME280;8482;54.396;18.590;2023-05-20T07:17:17;102819.16;;;13.67;71.29
48606;BME280;8482;54.396;18.590;2023-05-20T07:19:43;102824.09;;;13.73;70.99
48606;BME280;8482;54.396;18.590;2023-05-20T07:22:08;102826.59;;;13.76;70.80
48606;BME280;8482;54.396;18.590;2023-05-20T07:24:35;102826.25;;;13.83;70.83
48606;BME280;8482;54.396;18.590;2023-05-20T07:27:01;102825.97;;;13.87;70.97
48606;BME280;8482;54.396;18.590;2023-05-20T07:29:27;102828.91;;;13.97;71.18
48606;BME280;8482;54.396;18.590;2023-05-20T07:31:53;102826.00;;;14.02;70.59
48606;BME280;8482;54.396;18.590;2023-05-20T07:34:19;102829.88;;;14.10;70.67
48606;BME280;8482;54.396;18.590;2023-05-20T07:36:45;102827.53;;;14.20;70.41
48606;BME280;8482;54.396;18.590;2023-05-20T07:39:10;102811.81;;;14.30;70.18
48606;BME280;8482;54.396;18.590;2023-05-20T07:41:37;102810.44;;;14.37;69.97
48606;BME280;8482;54.396;18.590;2023-05-20T07:44:06;102817.91;;;14.47;69.43
48606;BME280;8482;54.396;18.590;2023-05-20T07:46:34;102812.28;;;14.51;68.89
48606;BME280;8482;54.396;18.590;2023-05-20T07:48:59;102800.72;;;14.51;68.39
48606;BME280;8482;54.396;18.590;2023-05-20T07:51:25;102808.91;;;14.62;68.09
48606;BME280;8482;54.396;18.590;2023-05-20T07:53:51;102820.09;;;14.69;67.90
48606;BME280;8482;54.396;18.590;2023-05-20T07:56:17;102814.38;;;14.75;68.08
48606;BME280;8482;54.396;18.590;2023-05-20T07:58:55;102821.13;;;14.81;67.42
48606;BME280;8482;54.396;18.590;2023-05-20T08:01:23;102806.16;;;14.78;67.26
48606;BME280;8482;54.396;18.590;2023-05-20T08:03:49;102810.91;;;14.88;66.86
48606;BME280;8482;54.396;18.590;2023-05-20T08:06:15;102815.19;;;14.90;66.74
48606;BME280;8482;54.396;18.590;2023-05-20T08:08:42;102813.19;;;14.94;66.74
48606;BME280;8482;54.396;18.590;2023-05-20T08:11:08;102810.22;;;14.98;66.15
48606;BME280;8482;54.396;18.590;2023-05-20T08:13:37;102812.69;;;15.01;66.27
48606;BME280;8482;54.396;18.590;2023-05-20T08:16:03;102813.44;;;15.04;66.55
48606;BME280;8482;54.396;18.590;2023-05-20T08:18:31;102807.13;;;15.05;66.35
48606;BME280;8482;54.396;18.590;2023-05-20T08:21:01;102806.75;;;15.11;65.91
48606;BME280;8482;54.396;18.590;2023-05-20T08:23:26;102811.78;;;15.15;65.27
48606;BME280;8482;54.396;18.590;2023-05-20T08:25:52;102808.25;;;15.15;65.41
48606;BME280;8482;54.396;18.590;2023-05-20T08:28:19;102802.69;;;15.18;65.75
48606;BME280;8482;54.396;18.590;2023-05-20T08:30:45;102790.97;;;15.21;65.81
48606;BME280;8482;54.396;18.590;2023-05-20T08:33:13;102800.47;;;15.25;65.68
48606;BME280;8482;54.396;18.590;2023-05-20T08:35:39;102804.03;;;15.25;65.78
48606;BME280;8482;54.396;18.590;2023-05-20T08:38:05;102817.16;;;15.28;65.41
48606;BME280;8482;54.396;18.590;2023-05-20T08:40:34;102803.91;;;15.27;65.09
48606;BME280;8482;54.396;18.590;2023-05-20T08:42:59;102802.75;;;15.31;65.23
48606;BME280;8482;54.396;18.590;2023-05-20T08:45:26;102790.53;;;15.27;65.03
48606;BME280;8482;54.396;18.590;2023-05-20T08:47:57;102798.63;;;15.40;65.06
48606;BME280;8482;54.396;18.590;2023-05-20T08:50:23;102797.53;;;15.42;64.81
48606;BME280;8482;54.396;18.590;2023-05-20T08:52:49;102794.88;;;15.42;64.36
48606;BME280;8482;54.396;18.590;2023-05-20T08:55:34;102797.97;;;15.49;64.33
48606;BME280;8482;54.396;18.590;2023-05-20T08:58:02;102798.63;;;15.53;64.43
48606;BME280;8482;54.396;18.590;2023-05-20T09:00:28;102801.09;;;15.56;64.13
48606;BME280;8482;54.396;18.590;2023-05-20T09:02:55;102798.44;;;15.56;64.00
48606;BME280;8482;54.396;18.590;2023-05-20T09:05:21;102804.22;;;15.62;63.73
48606;BME280;8482;54.396;18.590;2023-05-20T09:07:48;102811.28;;;15.63;63.53
48606;BME280;8482;54.396;18.590;2023-05-20T09:10:14;102810.22;;;15.66;62.89
48606;BME280;8482;54.396;18.590;2023-05-20T09:12:40;102806.78;;;15.64;62.77
48606;BME280;8482;54.396;18.590;2023-05-20T09:15:07;102801.22;;;15.67;62.67
48606;BME280;8482;54.396;18.590;2023-05-20T09:17:37;102793.19;;;15.67;62.50
48606;BME280;8482;54.396;18.590;2023-05-20T09:20:10;102797.59;;;15.68;62.21
48606;BME280;8482;54.396;18.590;2023-05-20T09:22:38;102803.16;;;15.65;62.48
48606;BME280;8482;54.396;18.590;2023-05-20T09:25:04;102789.00;;;15.63;62.40
48606;BME280;8482;54.396;18.590;2023-05-20T09:27:31;102802.09;;;15.68;62.56
48606;BME280;8482;54.396;18.590;2023-05-20T09:29:57;102800.25;;;15.68;62.32
48606;BME280;8482;54.396;18.590;2023-05-20T09:32:23;102787.41;;;15.60;62.29
48606;BME280;8482;54.396;18.590;2023-05-20T09:34:51;102800.38;;;15.67;62.44
48606;BME280;8482;54.396;18.590;2023-05-20T09:37:17;102787.41;;;15.60;62.77
48606;BME280;8482;54.396;18.590;2023-05-20T09:40:02;102802.31;;;15.77;63.15
48606;BME280;8482;54.396;18.590;2023-05-20T09:42:41;102793.13;;;15.82;62.98
48606;BME280;8482;54.396;18.590;2023-05-20T09:45:09;102796.13;;;15.90;62.50
48606;BME280;8482;54.396;18.590;2023-05-20T09:47:38;102800.44;;;15.92;62.27
48606;BME280;8482;54.396;18.590;2023-05-20T09:50:08;102799.91;;;16.00;62.31
48606;BME280;8482;54.396;18.590;2023-05-20T09:52:37;102800.44;;;16.05;62.44
48606;BME280;8482;54.396;18.590;2023-05-20T09:55:05;102799.25;;;16.09;62.18
48606;BME280;8482;54.396;18.590;2023-05-20T09:57:34;102792.94;;;16.11;61.97
48606;BME280;8482;54.396;18.590;2023-05-20T10:00:03;102797.22;;;16.13;61.68
48606;BME280;8482;54.396;18.590;2023-05-20T10:02:41;102796.03;;;16.17;61.49
48606;BME280;8482;54.396;18.590;2023-05-20T10:05:23;102791.66;;;16.16;61.62
48606;BME280;8482;54.396;18.590;2023-05-20T10:14:31;102803.75;;;16.09;61.40
48606;BME280;8482;54.396;18.590;2023-05-20T10:19:39;102812.00;;;16.06;61.61
48606;BME280;8482;54.396;18.590;2023-05-20T10:22:09;102800.63;;;16.02;61.54
48606;BME280;8482;54.396;18.590;2023-05-20T10:24:40;102809.94;;;15.97;61.58
48606;BME280;8482;54.396;18.590;2023-05-20T10:27:12;102809.09;;;15.96;61.88
48606;BME280;8482;54.396;18.590;2023-05-20T10:29:52;102795.81;;;15.94;61.81
48606;BME280;8482;54.396;18.590;2023-05-20T10:32:32;102797.00;;;15.90;61.89
48606;BME280;8482;54.396;18.590;2023-05-20T10:35:04;102799.78;;;15.89;61.87
48606;BME280;8482;54.396;18.590;2023-05-20T10:37:45;102791.97;;;15.86;61.64
48606;BME280;8482;54.396;18.590;2023-05-20T10:40:14;102797.06;;;15.76;61.46
48606;BME280;8482;54.396;18.590;2023-05-20T10:42:41;102798.44;;;15.69;61.47
48606;BME280;8482;54.396;18.590;2023-05-20T10:45:08;102790.97;;;15.61;61.69
48606;BME280;8482;54.396;18.590;2023-05-20T10:47:35;102785.16;;;15.54;62.06
48606;BME280;8482;54.396;18.590;2023-05-20T10:50:02;102780.53;;;15.43;62.36
48606;BME280;8482;54.396;18.590;2023-05-20T10:52:35;102782.56;;;15.40;62.87
48606;BME280;8482;54.396;18.590;2023-05-20T10:55:02;102783.72;;;15.36;63.10
48606;BME280;8482;54.396;18.590;2023-05-20T10:57:29;102778.69;;;15.31;63.30
48606;BME280;8482;54.396;18.590;2023-05-20T10:59:57;102777.38;;;15.24;63.12
48606;BME280;8482;54.396;18.590;2023-05-20T11:02:24;102774.69;;;15.24;63.70
48606;BME280;8482;54.396;18.590;2023-05-20T11:04:55;102772.91;;;15.24;63.41
48606;BME280;8482;54.396;18.590;2023-05-20T11:07:30;102767.34;;;15.27;63.60
48606;BME280;8482;54.396;18.590;2023-05-20T11:09:57;102761.00;;;15.28;63.59
48606;BME280;8482;54.396;18.590;2023-05-20T11:12:25;102757.28;;;15.31;63.82
48606;BME280;8482;54.396;18.590;2023-05-20T11:14:52;102772.28;;;15.33;63.83
48606;BME280;8482;54.396;18.590;2023-05-20T11:17:19;102754.44;;;15.34;63.71
48606;BME280;8482;54.396;18.590;2023-05-20T11:19:48;102763.84;;;15.40;63.60
48606;BME280;8482;54.396;18.590;2023-05-20T11:22:15;102756.16;;;15.48;63.54
48606;BME280;8482;54.396;18.590;2023-05-20T11:24:40;102747.81;;;15.53;63.01
48606;BME280;8482;54.396;18.590;2023-05-20T11:27:06;102747.41;;;15.59;62.78
48606;BME280;8482;54.396;18.590;2023-05-20T11:29:32;102745.16;;;15.66;62.87
48606;BME280;8482;54.396;18.590;2023-05-20T11:31:59;102745.28;;;15.77;63.06
48606;BME280;8482;54.396;18.590;2023-05-20T11:34:33;102750.97;;;15.85;62.54
48606;BME280;8482;54.396;18.590;2023-05-20T11:36:59;102738.75;;;15.94;62.54
48606;BME280;8482;54.396;18.590;2023-05-20T11:39:28;102736.09;;;16.07;62.29
48606;BME280;8482;54.396;18.590;2023-05-20T11:41:55;102732.28;;;16.22;62.16
48606;BME280;8482;54.396;18.590;2023-05-20T11:44:20;102733.03;;;16.37;61.52
48606;BME280;8482;54.396;18.590;2023-05-20T11:46:47;102729.81;;;16.45;60.14
48606;BME280;8482;54.396;18.590;2023-05-20T11:49:14;102726.44;;;16.54;60.10
48606;BME280;8482;54.396;18.590;2023-05-20T11:51:42;102718.69;;;16.63;59.89
48606;BME280;8482;54.396;18.590;2023-05-20T11:54:08;102724.97;;;16.75;59.40
48606;BME280;8482;54.396;18.590;2023-05-20T11:56:39;102732.31;;;16.84;58.95
48606;BME280;8482;54.396;18.590;2023-05-20T11:59:08;102733.38;;;16.94;58.83
48606;BME280;8482;54.396;18.590;2023-05-20T12:01:38;102733.53;;;17.04;58.15
48606;BME280;8482;54.396;18.590;2023-05-20T12:04:13;102726.84;;;17.10;58.12
48606;BME280;8482;54.396;18.590;2023-05-20T12:06:39;102725.53;;;17.15;57.52
48606;BME280;8482;54.396;18.590;2023-05-20T12:09:06;102728.22;;;17.15;57.58
48606;BME280;8482;54.396;18.590;2023-05-20T12:11:37;102726.28;;;17.18;57.77
48606;BME280;8482;54.396;18.590;2023-05-20T12:14:07;102727.72;;;17.10;57.50
48606;BME280;8482;54.396;18.590;2023-05-20T12:16:35;102734.28;;;17.06;57.59
48606;BME280;8482;54.396;18.590;2023-05-20T12:19:01;102729.41;;;17.00;57.62
48606;BME280;8482;54.396;18.590;2023-05-20T12:21:30;102717.06;;;16.97;57.64
48606;BME280;8482;54.396;18.590;2023-05-20T12:23:58;102717.19;;;16.96;57.61
48606;BME280;8482;54.396;18.590;2023-05-20T12:26:26;102722.00;;;16.91;57.54
48606;BME280;8482;54.396;18.590;2023-05-20T12:28:53;102717.94;;;16.85;57.71
48606;BME280;8482;54.396;18.590;2023-05-20T12:31:19;102710.25;;;16.80;57.47
48606;BME280;8482;54.396;18.590;2023-05-20T12:33:45;102707.06;;;16.75;57.68
48606;BME280;8482;54.396;18.590;2023-05-20T12:36:12;102692.41;;;16.68;57.69
48606;BME280;8482;54.396;18.590;2023-05-20T12:38:38;102696.28;;;16.64;57.73
48606;BME280;8482;54.396;18.590;2023-05-20T12:41:04;102694.28;;;16.54;57.89
48606;BME280;8482;54.396;18.590;2023-05-20T12:43:30;102692.59;;;16.53;58.23
48606;BME280;8482;54.396;18.590;2023-05-20T12:45:56;102692.91;;;16.49;58.23
48606;BME280;8482;54.396;18.590;2023-05-20T12:48:22;102682.56;;;16.44;58.62
48606;BME280;8482;54.396;18.590;2023-05-20T12:50:48;102688.97;;;16.42;58.66
48606;BME280;8482;54.396;18.590;2023-05-20T12:53:14;102689.22;;;16.38;58.68
48606;BME280;8482;54.396;18.590;2023-05-20T12:55:39;102688.81;;;16.32;58.97
48606;BME280;8482;54.396;18.590;2023-05-20T12:58:06;102687.19;;;16.29;59.50
48606;BME280;8482;54.396;18.590;2023-05-20T13:00:34;102677.44;;;16.28;59.11
48606;BME280;8482;54.396;18.590;2023-05-20T13:03:00;102674.25;;;16.23;58.83
48606;BME280;8482;54.396;18.590;2023-05-20T13:05:26;102672.75;;;16.19;58.92
48606;BME280;8482;54.396;18.590;2023-05-20T13:07:52;102676.53;;;16.16;59.11
48606;BME280;8482;54.396;18.590;2023-05-20T13:10:18;102674.06;;;16.13;59.26
48606;BME280;8482;54.396;18.590;2023-05-20T13:12:44;102674.06;;;16.13;59.10
48606;BME280;8482;54.396;18.590;2023-05-20T13:15:11;102680.50;;;16.11;59.20
48606;BME280;8482;54.396;18.590;2023-05-20T13:17:40;102665.50;;;16.08;59.36
48606;BME280;8482;54.396;18.590;2023-05-20T13:20:07;102651.59;;;16.03;59.11
48606;BME280;8482;54.396;18.590;2023-05-20T13:22:33;102657.28;;;15.98;59.16
48606;BME280;8482;54.396;18.590;2023-05-20T13:25:00;102651.94;;;15.98;59.21
48606;BME280;8482;54.396;18.590;2023-05-20T13:27:26;102650.84;;;16.01;59.34
48606;BME280;8482;54.396;18.590;2023-05-20T13:29:52;102653.41;;;16.02;59.56
48606;BME280;8482;54.396;18.590;2023-05-20T13:32:18;102650.72;;;16.02;59.30
48606;BME280;8482;54.396;18.590;2023-05-20T13:34:44;102654.78;;;16.08;58.86
48606;BME280;8482;54.396;18.590;2023-05-20T13:37:10;102654.47;;;16.13;58.65
48606;BME280;8482;54.396;18.590;2023-05-20T13:39:36;102652.22;;;16.19;58.51
48606;BME280;8482;54.396;18.590;2023-05-20T13:42:02;102650.25;;;16.21;57.60
48606;BME280;8482;54.396;18.590;2023-05-20T13:44:28;102644.69;;;16.24;57.36
48606;BME280;8482;54.396;18.590;2023-05-20T13:46:55;102643.63;;;16.27;57.25
48606;BME280;8482;54.396;18.590;2023-05-20T13:49:21;102635.34;;;16.30;57.40
48606;BME280;8482;54.396;18.590;2023-05-20T13:51:47;102639.50;;;16.34;56.90
48606;BME280;8482;54.396;18.590;2023-05-20T13:54:13;102634.03;;;16.36;56.82
48606;BME280;8482;54.396;18.590;2023-05-20T13:56:39;102634.69;;;16.39;56.91
48606;BME280;8482;54.396;18.590;2023-05-20T13:59:05;102629.94;;;16.43;57.03
48606;BME280;8482;54.396;18.590;2023-05-20T14:01:31;102620.78;;;16.59;57.35
48606;BME280;8482;54.396;18.590;2023-05-20T14:04:00;102615.72;;;16.78;56.93
48606;BME280;8482;54.396;18.590;2023-05-20T14:06:26;102617.13;;;16.95;56.46
48606;BME280;8482;54.396;18.590;2023-05-20T14:08:55;102616.34;;;17.18;56.19
48606;BME280;8482;54.396;18.590;2023-05-20T14:11:21;102615.28;;;17.43;56.69
48606;BME280;8482;54.396;18.590;2023-05-20T14:13:47;102607.94;;;17.79;56.71
48606;BME280;8482;54.396;18.590;2023-05-20T14:16:13;102609.28;;;18.07;55.22
48606;BME280;8482;54.396;18.590;2023-05-20T14:18:38;102612.13;;;18.38;54.55
48606;BME280;8482;54.396;18.590;2023-05-20T14:21:06;102609.97;;;18.65;53.34
48606;BME280;8482;54.396;18.590;2023-05-20T14:23:31;102611.66;;;18.87;52.82
48606;BME280;8482;54.396;18.590;2023-05-20T14:25:57;102609.47;;;19.13;52.47
48606;BME280;8482;54.396;18.590;2023-05-20T14:28:23;102603.06;;;19.36;52.38
48606;BME280;8482;54.396;18.590;2023-05-20T14:30:49;102623.03;;;19.64;51.93
48606;BME280;8482;54.396;18.590;2023-05-20T14:33:15;102616.72;;;19.85;51.10
48606;BME280;8482;54.396;18.590;2023-05-20T14:35:41;102609.72;;;20.03;50.57
48606;BME280;8482;54.396;18.590;2023-05-20T14:38:07;102617.97;;;20.21;50.14
48606;BME280;8482;54.396;18.590;2023-05-20T14:40:33;102608.03;;;20.32;49.41
48606;BME280;8482;54.396;18.590;2023-05-20T14:42:59;102612.03;;;20.47;49.16
48606;BME280;8482;54.396;18.590;2023-05-20T14:45:24;102617.44;;;20.67;48.98
48606;BME280;8482;54.396;18.590;2023-05-20T14:47:50;102603.53;;;20.81;48.75
48606;BME280;8482;54.396;18.590;2023-05-20T14:50:16;102605.47;;;20.99;47.93
48606;BME280;8482;54.396;18.590;2023-05-20T14:52:42;102600.94;;;21.09;47.70
48606;BME280;8482;54.396;18.590;2023-05-20T14:55:08;102602.31;;;21.13;47.09
48606;BME280;8482;54.396;18.590;2023-05-20T14:57:34;102600.63;;;21.12;47.27
48606;BME280;8482;54.396;18.590;2023-05-20T15:00:00;102591.13;;;21.08;46.74
48606;BME280;8482;54.396;18.590;2023-05-20T15:02:26;102593.84;;;20.98;46.51
48606;BME280;8482;54.396;18.590;2023-05-20T15:04:54;102590.31;;;20.88;46.54
48606;BME280;8482;54.396;18.590;2023-05-20T15:07:20;102582.81;;;20.82;46.76
48606;BME280;8482;54.396;18.590;2023-05-20T15:09:45;102584.94;;;20.78;46.77
48606;BME280;8482;54.396;18.590;2023-05-20T15:12:11;102586.19;;;20.74;46.08
48606;BME280;8482;54.396;18.590;2023-05-20T15:14:37;102584.19;;;20.66;46.12
48606;BME280;8482;54.396;18.590;2023-05-20T15:17:03;102576.28;;;20.55;46.50
48606;BME280;8482;54.396;18.590;2023-05-20T15:19:31;102574.28;;;20.47;46.63
48606;BME280;8482;54.396;18.590;2023-05-20T15:21:57;102571.88;;;20.34;47.22
48606;BME280;8482;54.396;18.590;2023-05-20T15:24:23;102569.47;;;20.31;47.54
48606;BME280;8482;54.396;18.590;2023-05-20T15:26:49;102561.94;;;20.35;47.86
48606;BME280;8482;54.396;18.590;2023-05-20T15:29:15;102563.81;;;20.44;47.23
48606;BME280;8482;54.396;18.590;2023-05-20T15:31:41;102556.13;;;20.49;46.86
48606;BME280;8482;54.396;18.590;2023-05-20T15:34:07;102558.25;;;20.46;46.58
48606;BME280;8482;54.396;18.590;2023-05-20T15:36:32;102554.84;;;20.34;46.83
48606;BME280;8482;54.396;18.590;2023-05-20T15:38:58;102551.91;;;20.17;46.99
48606;BME280;8482;54.396;18.590;2023-05-20T15:41:24;102546.91;;;20.03;47.32
48606;BME280;8482;54.396;18.590;2023-05-20T15:43:50;102551.56;;;19.91;47.72
48606;BME280;8482;54.396;18.590;2023-05-20T15:46:16;102551.81;;;19.78;48.03
48606;BME280;8482;54.396;18.590;2023-05-20T15:48:42;102553.44;;;19.59;48.34
48606;BME280;8482;54.396;18.590;2023-05-20T15:51:08;102539.22;;;19.38;48.54
48606;BME280;8482;54.396;18.590;2023-05-20T15:53:34;102543.28;;;19.32;49.04
48606;BME280;8482;54.396;18.590;2023-05-20T15:56:00;102536.47;;;19.28;49.64
48606;BME280;8482;54.396;18.590;2023-05-20T15:58:26;102539.75;;;19.32;49.65
48606;BME280;8482;54.396;18.590;2023-05-20T16:00:51;102538.50;;;19.36;49.92
48606;BME280;8482;54.396;18.590;2023-05-20T16:03:17;102518.06;;;19.33;49.34
48606;BME280;8482;54.396;18.590;2023-05-20T16:05:43;102516.25;;;19.34;49.59
48606;BME280;8482;54.396;18.590;2023-05-20T16:08:09;102514.44;;;19.44;49.65
48606;BME280;8482;54.396;18.590;2023-05-20T16:10:35;102522.56;;;19.54;49.51
48606;BME280;8482;54.396;18.590;2023-05-20T16:13:01;102521.97;;;19.60;49.12
48606;BME280;8482;54.396;18.590;2023-05-20T16:15:27;102526.41;;;19.71;49.05
48606;BME280;8482;54.396;18.590;2023-05-20T16:17:57;102513.97;;;19.80;48.77
48606;BME280;8482;54.396;18.590;2023-05-20T16:20:23;102515.25;;;19.85;48.42
48606;BME280;8482;54.396;18.590;2023-05-20T16:22:49;102515.41;;;19.94;48.44
48606;BME280;8482;54.396;18.590;2023-05-20T16:25:15;102515.84;;;19.99;48.33
48606;BME280;8482;54.396;18.590;2023-05-20T16:27:40;102502.94;;;20.02;48.34
48606;BME280;8482;54.396;18.590;2023-05-20T16:30:07;102504.38;;;20.06;48.04
48606;BME280;8482;54.396;18.590;2023-05-20T16:32:33;102506.66;;;20.11;47.62
48606;BME280;8482;54.396;18.590;2023-05-20T16:34:59;102500.00;;;20.15;47.39
48606;BME280;8482;54.396;18.590;2023-05-20T16:37:27;102497.28;;;20.15;47.28
48606;BME280;8482;54.396;18.590;2023-05-20T16:39:53;102501.81;;;20.15;47.27
48606;BME280;8482;54.396;18.590;2023-05-20T16:42:19;102501.25;;;20.11;47.41
48606;BME280;8482;54.396;18.590;2023-05-20T16:44:45;102506.22;;;20.06;47.20
48606;BME280;8482;54.396;18.590;2023-05-20T16:47:11;102498.97;;;19.97;47.44
48606;BME280;8482;54.396;18.590;2023-05-20T16:49:37;102507.03;;;19.87;47.70
48606;BME280;8482;54.396;18.590;2023-05-20T16:52:03;102501.34;;;19.70;47.85
48606;BME280;8482;54.396;18.590;2023-05-20T16:54:29;102506.50;;;19.52;47.92
48606;BME280;8482;54.396;18.590;2023-05-20T16:56:55;102493.03;;;19.33;48.36
48606;BME280;8482;54.396;18.590;2023-05-20T16:59:21;102502.44;;;19.17;48.81
48606;BME280;8482;54.396;18.590;2023-05-20T17:01:49;102490.91;;;18.95;49.27
48606;BME280;8482;54.396;18.590;2023-05-20T17:04:15;102498.03;;;18.85;49.32
48606;BME280;8482;54.396;18.590;2023-05-20T17:06:41;102498.38;;;18.71;49.92
48606;BME280;8482;54.396;18.590;2023-05-20T17:09:07;102490.91;;;18.53;50.10
48606;BME280;8482;54.396;18.590;2023-05-20T17:11:33;102490.97;;;18.42;50.51
48606;BME280;8482;54.396;18.590;2023-05-20T17:13:59;102493.00;;;18.28;50.84
48606;BME280;8482;54.396;18.590;2023-05-20T17:16:26;102489.50;;;18.16;50.99
48606;BME280;8482;54.396;18.590;2023-05-20T17:18:52;102495.66;;;18.07;51.04
48606;BME280;8482;54.396;18.590;2023-05-20T17:21:18;102492.75;;;17.99;51.23
48606;BME280;8482;54.396;18.590;2023-05-20T17:23:47;102491.75;;;17.88;51.40
48606;BME280;8482;54.396;18.590;2023-05-20T17:26:13;102494.00;;;17.83;51.83
48606;BME280;8482;54.396;18.590;2023-05-20T17:28:40;102491.44;;;17.70;52.02
48606;BME280;8482;54.396;18.590;2023-05-20T17:31:06;102499.75;;;17.67;52.27
48606;BME280;8482;54.396;18.590;2023-05-20T17:33:33;102489.91;;;17.56;52.59
48606;BME280;8482;54.396;18.590;2023-05-20T17:35:59;102492.25;;;17.50;53.27
48606;BME280;8482;54.396;18.590;2023-05-20T17:38:26;102493.69;;;17.42;53.58
48606;BME280;8482;54.396;18.590;2023-05-20T17:40:52;102494.22;;;17.36;53.83
48606;BME280;8482;54.396;18.590;2023-05-20T17:43:20;102486.78;;;17.28;53.93
48606;BME280;8482;54.396;18.590;2023-05-20T17:45:46;102493.34;;;17.24;54.20
48606;BME280;8482;54.396;18.590;2023-05-20T17:48:13;102488.72;;;17.15;54.12
48606;BME280;8482;54.396;18.590;2023-05-20T17:50:39;102487.16;;;17.12;54.36
48606;BME280;8482;54.396;18.590;2023-05-20T17:53:05;102488.50;;;17.07;54.13
48606;BME280;8482;54.396;18.590;2023-05-20T17:55:31;102499.56;;;17.02;54.30
48606;BME280;8482;54.396;18.590;2023-05-20T17:58:03;102496.59;;;16.94;54.32
48606;BME280;8482;54.396;18.590;2023-05-20T18:00:32;102487.22;;;16.88;54.72
48606;BME280;8482;54.396;18.590;2023-05-20T18:02:59;102497.06;;;16.88;54.87
48606;BME280;8482;54.396;18.590;2023-05-20T18:05:25;102494.03;;;16.81;54.86
48606;BME280;8482;54.396;18.590;2023-05-20T18:07:51;102507.69;;;16.78;55.00
48606;BME280;8482;54.396;18.590;2023-05-20T18:10:17;102497.44;;;16.72;55.29
48606;BME280;8482;54.396;18.590;2023-05-20T18:12:43;102501.19;;;16.69;55.50
48606;BME280;8482;54.396;18.590;2023-05-20T18:15:10;102487.88;;;16.56;55.80
48606;BME280;8482;54.396;18.590;2023-05-20T18:17:39;102495.81;;;16.58;55.97
48606;BME280;8482;54.396;18.590;2023-05-20T18:20:06;102490.94;;;16.51;56.16
48606;BME280;8482;54.396;18.590;2023-05-20T18:22:34;102500.19;;;16.47;56.29
48606;BME280;8482;54.396;18.590;2023-05-20T18:25:00;102495.28;;;16.41;56.59
48606;BME280;8482;54.396;18.590;2023-05-20T18:27:26;102499.28;;;16.35;56.84
48606;BME280;8482;54.396;18.590;2023-05-20T18:29:51;102491.69;;;16.29;56.92
48606;BME280;8482;54.396;18.590;2023-05-20T18:32:18;102491.31;;;16.22;56.99
48606;BME280;8482;54.396;18.590;2023-05-20T18:34:44;102491.56;;;16.19;57.34
48606;BME280;8482;54.396;18.590;2023-05-20T18:37:10;102484.72;;;16.15;57.30
48606;BME280;8482;54.396;18.590;2023-05-20T18:39:36;102486.66;;;16.13;57.75
48606;BME280;8482;54.396;18.590;2023-05-20T18:42:02;102491.41;;;16.09;57.38
48606;BME280;8482;54.396;18.590;2023-05-20T18:44:28;102488.94;;;16.06;57.76
48606;BME280;8482;54.396;18.590;2023-05-20T18:46:55;102487.59;;;16.01;57.74
48606;BME280;8482;54.396;18.590;2023-05-20T18:49:20;102487.81;;;15.98;57.61
48606;BME280;8482;54.396;18.590;2023-05-20T18:51:46;102489.25;;;15.90;57.74
48606;BME280;8482;54.396;18.590;2023-05-20T18:54:12;102491.31;;;15.87;57.91
48606;BME280;8482;54.396;18.590;2023-05-20T18:56:38;102495.00;;;15.84;58.15
48606;BME280;8482;54.396;18.590;2023-05-20T18:59:03;102489.03;;;15.81;58.15
48606;BME280;8482;54.396;18.590;2023-05-20T19:01:29;102491.81;;;15.79;57.80
48606;BME280;8482;54.396;18.590;2023-05-20T19:03:55;102488.50;;;15.75;57.85
48606;BME280;8482;54.396;18.590;2023-05-20T19:06:21;102484.25;;;15.73;58.03
48606;BME280;8482;54.396;18.590;2023-05-20T19:08:47;102483.63;;;15.69;58.31
48606;BME280;8482;54.396;18.590;2023-05-20T19:11:14;102492.81;;;15.65;58.50
48606;BME280;8482;54.396;18.590;2023-05-20T19:13:40;102488.56;;;15.62;58.95
48606;BME280;8482;54.396;18.590;2023-05-20T19:16:06;102486.84;;;15.61;58.86
48606;BME280;8482;54.396;18.590;2023-05-20T19:18:32;102477.25;;;15.59;58.67
48606;BME280;8482;54.396;18.590;2023-05-20T19:20:58;102483.66;;;15.56;59.01
48606;BME280;8482;54.396;18.590;2023-05-20T19:23:24;102486.78;;;15.50;59.08
48606;BME280;8482;54.396;18.590;2023-05-20T19:25:50;102493.09;;;15.49;59.13
48606;BME280;8482;54.396;18.590;2023-05-20T19:28:15;102488.91;;;15.45;59.29
48606;BME280;8482;54.396;18.590;2023-05-20T19:30:41;102488.16;;;15.43;59.32
48606;BME280;8482;54.396;18.590;2023-05-20T19:33:07;102480.41;;;15.40;59.57
48606;BME280;8482;54.396;18.590;2023-05-20T19:35:33;102488.28;;;15.41;59.64
48606;BME280;8482;54.396;18.590;2023-05-20T19:37:59;102480.59;;;15.37;59.60
48606;BME280;8482;54.396;18.590;2023-05-20T19:40:25;102476.56;;;15.31;59.67
48606;BME280;8482;54.396;18.590;2023-05-20T19:42:51;102493.44;;;15.31;59.74
48606;BME280;8482;54.396;18.590;2023-05-20T19:45:17;102483.09;;;15.27;59.96
48606;BME280;8482;54.396;18.590;2023-05-20T19:47:43;102480.28;;;15.28;59.71
48606;BME280;8482;54.396;18.590;2023-05-20T19:50:09;102477.84;;;15.25;59.51
48606;BME280;8482;54.396;18.590;2023-05-20T19:52:35;102473.69;;;15.21;59.78
48606;BME280;8482;54.396;18.590;2023-05-20T19:55:02;102476.56;;;15.18;59.88
48606;BME280;8482;54.396;18.590;2023-05-20T19:57:28;102485.53;;;15.17;60.21
48606;BME280;8482;54.396;18.590;2023-05-20T19:59:54;102477.78;;;15.14;60.57
48606;BME280;8482;54.396;18.590;2023-05-20T20:02:20;102484.16;;;15.11;60.40
48606;BME280;8482;54.396;18.590;2023-05-20T20:04:46;102473.72;;;15.08;60.83
48606;BME280;8482;54.396;18.590;2023-05-20T20:07:12;102468.16;;;14.98;60.94
48606;BME280;8482;54.396;18.590;2023-05-20T20:09:38;102467.84;;;15.03;61.05
48606;BME280;8482;54.396;18.590;2023-05-20T20:12:05;102474.13;;;15.02;61.13